This is the latest recevied weather packets stored in our database for station/object s59zo-6. If no packets are shown the sender has not sent any weather packets the latest 10 day(s).
| Time | Temp. | Humidity | Pressure | Rain* | Wind** | Luminosity | Snow |
|---|---|---|---|---|---|---|---|
| 1787957705 | 19.44° C | 88% | 1017.3 hPa | 0 mm | - | - | - |
| 1787957405 | 19.44° C | 88% | 1017.3 hPa | 0 mm | - | - | - |
| 1787957105 | 20° C | 88% | 1017.3 hPa | 0 mm | - | - | - |
| 1787956805 | 20° C | 88% | 1017.4 hPa | 0 mm | - | - | - |
| 1787956505 | 20° C | 87% | 1017.4 hPa | 0 mm | - | - | - |
| 1787956205 | 20° C | 86% | 1017.4 hPa | 0 mm | - | - | - |
| 1787955905 | 20° C | 85% | 1017.5 hPa | 0 mm | - | - | - |
| 1787955605 | 20.56° C | 85% | 1017.4 hPa | 0 mm | - | - | - |
| 1787955305 | 20.56° C | 85% | 1017.4 hPa | 0.25 mm | - | - | - |
| 1787955005 | 20.56° C | 85% | 1017.4 hPa | 1.78 mm | - | - | - |
| 1787954704 | 20.56° C | 90% | 1017.1 hPa | 3.05 mm | - | - | - |
| 1787954406 | 20.56° C | 90% | 1017.1 hPa | 3.05 mm | - | - | - |
| 1787954105 | 20.56° C | 90% | 1017.7 hPa | 3.05 mm | - | - | - |
| 1787953806 | 20.56° C | 89% | 1017.3 hPa | 3.05 mm | - | - | - |
| 1787953505 | 20.56° C | 88% | 1017.6 hPa | 3.05 mm | - | - | - |
| 1787953205 | 20.56° C | 87% | 1017.6 hPa | 3.05 mm | - | - | - |
| 1787952904 | 20.56° C | 87% | 1018 hPa | 3.05 mm | - | - | - |
| 1787952605 | 20.56° C | 86% | 1018.5 hPa | 3.05 mm | - | - | - |
| 1787952304 | 21.11° C | 85% | 1018.8 hPa | 3.05 mm | - | - | - |
| 1787952005 | 21.67° C | 83% | 1019.2 hPa | 3.05 mm | - | - | - |
| 1787951705 | 22.22° C | 81% | 1019.5 hPa | 2.79 mm | - | - | - |
| 1787951406 | 25° C | 72% | 1020.6 hPa | 1.27 mm | - | - | - |
| 1787951104 | 25.56° C | 71% | 1019.4 hPa | 0 mm | - | - | - |
| 1787950805 | 25° C | 71% | 1019 hPa | 0 mm | - | - | - |
| 1787950505 | 25° C | 71% | 1018.9 hPa | 0 mm | - | - | - |
* Rain latest hour (hover to see other rain measurements)
** Current wind speed in m/s (hover to see current wind gust speed)